Time;durP1;ratioP1;P1;durP2;ratioP2;P2;SDS_P1;SDS_P2;PMS_P1;PMS_P2;Temp;Humidity;BMP_temperature;BMP_pressure;BME280_temperature;BME280_humidity;BME280_pressure;Samples;Min_cycle;Max_cycle;Signal;HPM_P1;HPM_P2
2022/11/11 00:01:00;;;;;;;2.05;0.60;;;21.70;36.80;;;;;;5042089;28;20164;-65
2022/11/11 00:03:26;;;;;;;2.63;0.50;;;21.90;36.40;;;;;;5042795;28;20153;-66
2022/11/11 00:05:53;;;;;;;5.45;2.10;;;21.90;36.00;;;;;;5039151;28;20086;-66
2022/11/11 00:08:19;;;;;;;3.63;1.75;;;21.80;36.60;;;;;;5044335;28;20139;-65
2022/11/11 00:10:46;;;;;;;4.05;1.35;;;21.60;36.60;;;;;;5042444;28;20424;-66
2022/11/11 00:13:12;;;;;;;4.13;0.80;;;21.50;37.00;;;;;;5041943;28;20101;-66
2022/11/11 00:15:39;;;;;;;5.55;1.00;;;21.50;36.50;;;;;;5044794;28;20093;-67
2022/11/11 00:26:27;;;;;;;10.50;1.08;;;21.20;37.10;;;;;;5042162;28;20081;-66
2022/11/11 00:28:53;;;;;;;3.70;1.80;;;21.10;36.60;;;;;;5040257;28;20117;-67
2022/11/11 00:31:20;;;;;;;6.38;0.98;;;20.90;37.80;;;;;;5041978;28;20486;-66
2022/11/11 00:33:46;;;;;;;4.57;0.82;;;20.80;37.10;;;;;;5041836;28;20144;-66
2022/11/11 00:36:12;;;;;;;5.63;0.98;;;20.70;37.30;;;;;;5040384;28;20082;-66
2022/11/11 00:38:46;;;;;;;1.23;0.57;;;20.70;37.20;;;;;;5047885;28;20085;-67
2022/11/11 00:41:15;;;;;;;4.30;0.70;;;20.60;36.70;;;;;;5037838;28;20507;-67
2022/11/11 00:43:43;;;;;;;11.25;1.10;;;20.50;36.80;;;;;;5041152;28;20557;-66
2022/11/11 00:51:40;;;;;;;7.78;1.60;;;20.20;36.30;;;;;;5039585;28;20538;-68
2022/11/11 00:54:07;;;;;;;8.82;1.60;;;20.10;35.90;;;;;;5040708;28;20579;-68
2022/11/11 00:56:37;;;;;;;6.38;1.63;;;20.10;35.60;;;;;;5042241;28;20069;-66
2022/11/11 00:59:05;;;;;;;6.43;1.60;;;20.00;36.10;;;;;;5040106;28;20139;-66
2022/11/11 01:01:32;;;;;;;6.18;2.00;;;20.00;36.10;;;;;;5036897;28;20632;-67
2022/11/11 01:03:59;;;;;;;6.28;2.40;;;19.90;36.30;;;;;;5040198;28;20089;-67
2022/11/11 01:06:26;;;;;;;8.77;2.65;;;19.90;36.20;;;;;;5038825;28;20085;-66
2022/11/11 01:08:53;;;;;;;11.30;6.07;;;19.80;36.80;;;;;;5039747;28;20159;-66
2022/11/11 01:11:22;;;;;;;13.75;2.83;;;19.80;36.70;;;;;;5056139;28;20101;-66
2022/11/11 01:13:48;;;;;;;5.65;2.25;;;19.70;36.90;;;;;;5048887;28;20081;-65
2022/11/11 01:16:18;;;;;;;12.95;2.75;;;19.60;38.00;;;;;;5038925;28;20101;-66
2022/11/11 01:18:44;;;;;;;9.55;2.50;;;19.50;38.10;;;;;;5040137;28;20172;-63
2022/11/11 01:21:13;;;;;;;10.70;3.03;;;19.50;38.50;;;;;;5038867;28;20084;-65
2022/11/11 01:23:41;;;;;;;10.35;3.88;;;19.40;38.60;;;;;;5041371;28;20102;-65
2022/11/11 01:26:19;;;;;;;12.68;3.60;;;19.40;38.50;;;;;;5038275;28;20439;-64
2022/11/11 01:28:49;;;;;;;17.70;3.70;;;19.30;38.90;;;;;;5040735;28;20089;-64
2022/11/11 01:31:17;;;;;;;10.63;3.28;;;19.20;40.00;;;;;;5036882;28;20208;-65
2022/11/11 01:33:44;;;;;;;20.58;6.90;;;19.10;39.90;;;;;;5040216;28;20132;-67
2022/11/11 01:36:12;;;;;;;17.70;5.65;;;19.00;40.80;;;;;;5038331;28;20104;-67
2022/11/11 01:38:43;;;;;;;12.30;3.95;;;19.00;41.20;;;;;;5039850;28;20074;-66
2022/11/11 01:41:33;;;;;;;8.82;3.67;;;19.00;40.70;;;;;;5057842;28;20100;-66
2022/11/11 01:44:18;;;;;;;13.95;4.53;;;18.90;41.40;;;;;;5040652;28;20073;-65
2022/11/11 01:46:57;;;;;;;14.63;5.57;;;18.80;41.40;;;;;;5040139;28;20097;-67
2022/11/11 01:49:38;;;;;;;12.05;4.15;;;18.80;41.70;;;;;;5039558;28;20073;-66
2022/11/11 01:52:32;;;;;;;14.38;4.57;;;18.80;42.20;;;;;;5038982;28;20070;-66
2022/11/11 01:55:05;;;;;;;23.50;5.50;;;18.60;43.60;;;;;;5034452;28;20096;-66
2022/11/11 01:57:42;;;;;;;20.00;5.90;;;18.60;42.50;;;;;;5044388;28;20082;-65
2022/11/11 02:00:15;;;;;;;22.05;6.38;;;18.50;43.00;;;;;;5043096;28;20084;-67
2022/11/11 02:03:03;;;;;;;20.08;6.15;;;18.50;44.20;;;;;;5039877;28;20570;-62
2022/11/11 02:05:42;;;;;;;19.90;7.57;;;18.40;44.10;;;;;;5041178;28;20144;-66
2022/11/11 02:08:31;;;;;;;31.45;9.00;;;18.30;43.20;;;;;;5043875;28;20093;-66
2022/11/11 02:11:02;;;;;;;45.65;9.05;;;18.30;43.30;;;;;;5032581;28;20577;-64
2022/11/11 02:16:15;;;;;;;22.10;7.30;;;18.10;44.10;;;;;;5039229;28;20695;-70
2022/11/11 02:18:43;;;;;;;26.95;7.00;;;18.10;44.90;;;;;;5053700;28;20078;-67
2022/11/11 02:21:16;;;;;;;23.30;7.55;;;18.10;45.30;;;;;;5044975;28;20531;-69
2022/11/11 02:24:06;;;;;;;22.98;5.80;;;18.00;45.40;;;;;;5044461;28;20109;-68
2022/11/11 02:26:35;;;;;;;23.55;6.60;;;18.00;45.30;;;;;;5042600;28;20092;-67
2022/11/11 02:29:07;;;;;;;20.60;7.03;;;17.90;45.50;;;;;;5039490;28;20088;-68
2022/11/11 02:31:36;;;;;;;20.55;5.70;;;17.80;46.10;;;;;;5055109;28;20197;-67
2022/11/11 02:34:03;;;;;;;18.05;6.18;;;17.80;45.90;;;;;;5046387;28;20070;-69
2022/11/11 02:36:29;;;;;;;26.45;5.22;;;17.80;46.20;;;;;;5037467;28;20081;-67
2022/11/11 02:38:55;;;;;;;17.60;4.50;;;17.70;46.20;;;;;;5038188;28;20070;-68
2022/11/11 02:44:08;;;;;;;26.95;4.90;;;17.70;46.20;;;;;;5039420;28;20088;-67
2022/11/11 02:46:34;;;;;;;18.23;4.63;;;17.60;46.70;;;;;;5038072;28;20082;-66
2022/11/11 02:49:00;;;;;;;14.45;4.88;;;17.50;47.00;;;;;;5038666;28;20082;-66
2022/11/11 02:51:27;;;;;;;20.00;3.80;;;17.50;46.70;;;;;;5054816;28;20569;-66
2022/11/11 02:53:57;;;;;;;24.55;4.32;;;17.50;46.60;;;;;;5042558;28;20076;-64
2022/11/11 02:59:12;;;;;;;26.63;4.20;;;17.30;47.60;;;;;;5033031;28;20081;-68
2022/11/11 03:01:38;;;;;;;21.23;3.78;;;17.30;47.40;;;;;;5039370;28;20110;-67
2022/11/11 03:04:05;;;;;;;18.88;4.20;;;17.20;47.70;;;;;;5037616;28;20096;-67
2022/11/11 03:06:31;;;;;;;20.48;4.32;;;17.20;48.00;;;;;;5036989;28;20078;-66
2022/11/11 03:08:57;;;;;;;18.88;4.45;;;17.20;47.80;;;;;;5034356;28;20097;-67
2022/11/11 03:11:27;;;;;;;26.52;4.68;;;17.10;48.50;;;;;;5034942;28;20424;-66
2022/11/11 03:13:54;;;;;;;27.15;6.57;;;17.00;48.20;;;;;;5045452;28;20086;-67
2022/11/11 03:19:06;;;;;;;30.92;8.43;;;16.90;48.80;;;;;;5043472;28;20084;-68
2022/11/11 03:21:32;;;;;;;26.88;6.63;;;16.80;48.20;;;;;;5043679;28;20578;-66
2022/11/11 03:23:58;;;;;;;18.33;5.65;;;16.90;48.50;;;;;;5046988;28;20708;-65
2022/11/11 03:26:25;;;;;;;25.92;6.05;;;16.80;48.00;;;;;;5045153;28;20093;-66
2022/11/11 03:28:51;;;;;;;22.80;5.05;;;16.80;48.10;;;;;;5040886;28;20086;-67
2022/11/11 03:31:18;;;;;;;25.33;5.63;;;16.80;47.40;;;;;;5041144;28;20527;-67
2022/11/11 03:33:44;;;;;;;22.10;5.20;;;16.70;48.20;;;;;;5041460;28;20081;-67
2022/11/11 03:36:10;;;;;;;28.77;6.13;;;16.70;47.70;;;;;;5044793;28;20066;-67
2022/11/11 03:38:37;;;;;;;25.92;7.30;;;16.70;47.10;;;;;;5042823;28;20094;-67
2022/11/11 03:41:04;;;;;;;25.33;7.28;;;16.70;47.50;;;;;;5042684;28;20128;-67
2022/11/11 03:43:33;;;;;;;25.70;6.80;;;16.60;47.10;;;;;;5046848;28;20726;-67
2022/11/11 03:46:04;;;;;;;29.08;7.40;;;16.70;47.10;;;;;;5039611;28;20555;-67
2022/11/11 03:48:33;;;;;;;26.88;7.95;;;16.60;48.80;;;;;;5041574;28;20086;-67
2022/11/11 03:51:00;;;;;;;30.58;8.18;;;16.60;47.50;;;;;;5042205;28;20085;-67
2022/11/11 03:53:26;;;;;;;31.67;8.00;;;16.60;48.30;;;;;;5045961;28;20077;-67
2022/11/11 03:55:52;;;;;;;70.80;33.70;;;16.50;47.70;;;;;;5039778;28;20082;-66
2022/11/11 03:58:19;;;;;;;71.68;36.75;;;16.50;47.60;;;;;;5041274;28;20450;-66
2022/11/11 04:00:46;;;;;;;39.05;14.63;;;16.50;48.10;;;;;;5042102;28;20113;-66
2022/11/11 04:11:42;;;;;;;32.80;7.45;;;16.40;47.50;;;;;;5042408;28;20499;-67
2022/11/11 04:16:56;;;;;;;27.13;9.25;;;16.40;47.60;;;;;;5044873;28;20153;-69
2022/11/11 04:22:07;;;;;;;33.85;9.50;;;16.40;46.90;;;;;;5039025;28;20072;-68
2022/11/11 04:27:19;;;;;;;25.63;9.00;;;16.30;46.70;;;;;;5043204;28;20680;-66
2022/11/11 04:29:46;;;;;;;21.83;8.30;;;16.30;47.20;;;;;;5059870;28;20076;-69
2022/11/11 04:35:06;;;;;;;21.98;7.20;;;16.30;47.20;;;;;;5047693;28;20149;-66
2022/11/11 04:37:34;;;;;;;22.73;6.88;;;16.20;47.30;;;;;;5043672;28;20158;-67
2022/11/11 04:42:46;;;;;;;32.60;6.88;;;16.10;47.90;;;;;;5044355;28;20135;-69
2022/11/11 04:45:31;;;;;;;21.77;6.53;;;16.10;48.30;;;;;;5043814;28;20455;-67
2022/11/11 04:48:05;;;;;;;19.55;4.82;;;15.90;48.60;;;;;;5041150;28;20139;-69
2022/11/11 04:50:41;;;;;;;21.35;4.93;;;15.90;49.20;;;;;;5040256;28;20072;-69
2022/11/11 04:53:13;;;;;;;19.52;6.70;;;15.80;48.80;;;;;;5044312;28;20089;-69
2022/11/11 04:58:29;;;;;;;19.90;5.75;;;15.80;47.40;;;;;;5040645;28;20077;-68
2022/11/11 05:00:55;;;;;;;18.10;4.20;;;15.70;47.80;;;;;;5043277;28;20613;-69
2022/11/11 05:03:24;;;;;;;;;;;15.70;48.10;;;;;;5038720;28;20156;-68
2022/11/11 05:08:55;;;;;;;11.55;3.53;;;15.70;48.70;;;;;;5043379;28;20119;-68
2022/11/11 05:11:30;;;;;;;15.27;3.17;;;15.70;48.70;;;;;;5039256;28;20081;-67
2022/11/11 05:22:29;;;;;;;9.68;2.20;;;15.60;46.80;;;;;;5040431;28;20085;-67
2022/11/11 05:27:40;;;;;;;7.78;2.28;;;15.50;47.20;;;;;;5039644;28;20099;-69
2022/11/11 05:30:09;;;;;;;9.07;1.90;;;15.60;46.80;;;;;;5042855;28;20088;-68
2022/11/11 05:32:38;;;;;;;7.00;1.73;;;15.60;47.40;;;;;;5038290;28;20098;-69
2022/11/11 05:35:05;;;;;;;7.70;1.80;;;15.40;47.80;;;;;;5042613;28;20066;-67
2022/11/11 05:37:31;;;;;;;13.85;2.55;;;15.40;47.90;;;;;;5039003;28;20110;-69
2022/11/11 05:39:57;;;;;;;;;;;15.40;48.10;;;;;;5037473;28;20228;-67
2022/11/11 05:42:24;;;;;;;7.53;1.85;;;15.30;48.50;;;;;;5036684;28;20717;-67
2022/11/11 05:44:50;;;;;;;8.85;2.75;;;15.40;48.30;;;;;;5036413;28;20152;-68
2022/11/11 05:47:16;;;;;;;;;;;15.40;47.30;;;;;;5039273;28;20531;-68
2022/11/11 05:49:43;;;;;;;10.77;3.50;;;15.40;47.10;;;;;;5039841;28;20375;-68
2022/11/11 05:52:15;;;;;;;10.65;3.20;;;15.30;47.10;;;;;;5042578;28;20087;-68
2022/11/11 05:54:41;;;;;;;10.13;2.83;;;15.40;47.20;;;;;;5038841;28;20078;-67
2022/11/11 05:57:09;;;;;;;8.98;2.70;;;15.40;47.50;;;;;;5038318;28;20492;-67
2022/11/11 05:59:35;;;;;;;10.10;2.35;;;15.40;47.70;;;;;;5036846;28;20070;-67
2022/11/11 06:02:02;;;;;;;9.90;2.40;;;15.30;48.00;;;;;;5042804;28;20163;-67
2022/11/11 06:04:28;;;;;;;4.25;2.25;;;15.30;48.10;;;;;;5047389;28;20597;-67
2022/11/11 06:06:54;;;;;;;;;;;15.30;48.30;;;;;;5038668;28;20124;-66
2022/11/11 06:09:20;;;;;;;7.07;2.00;;;15.30;48.30;;;;;;5042855;28;19972;-69
2022/11/11 06:11:47;;;;;;;9.07;2.15;;;15.20;48.20;;;;;;5039135;28;20074;-69
2022/11/11 06:14:13;;;;;;;;;;;15.10;48.50;;;;;;5037971;28;20521;-67
2022/11/11 06:16:39;;;;;;;5.15;1.35;;;15.10;47.90;;;;;;5039288;28;20357;-66
2022/11/11 06:19:05;;;;;;;;;;;15.10;47.70;;;;;;5043737;28;20069;-68
2022/11/11 06:21:55;;;;;;;4.97;1.65;;;15.20;47.70;;;;;;5041897;28;20443;-67
2022/11/11 06:24:18;;;;;;;3.97;1.40;;;15.10;46.60;;;;;;5035397;28;20074;-67
2022/11/11 06:26:44;;;;;;;;;;;15.20;46.20;;;;;;5041681;28;20081;-68
2022/11/11 06:29:10;;;;;;;5.15;1.20;;;15.20;46.00;;;;;;5042441;28;19980;-68
2022/11/11 06:31:37;;;;;;;3.72;1.10;;;15.20;45.50;;;;;;5057520;28;20070;-66
2022/11/11 06:34:03;;;;;;;;;;;15.30;45.00;;;;;;5040226;28;20069;-68
2022/11/11 06:36:29;;;;;;;2.22;1.10;;;15.30;44.50;;;;;;5037941;28;19995;-68
2022/11/11 06:38:55;;;;;;;;;;;15.30;44.50;;;;;;5041655;28;20089;-67
2022/11/11 06:41:24;;;;;;;1.58;0.70;;;15.30;44.30;;;;;;5041857;28;19977;-68
2022/11/11 06:43:51;;;;;;;0.95;0.73;;;15.40;44.30;;;;;;5039447;28;20082;-69
2022/11/11 06:46:19;;;;;;;;;;;15.30;44.40;;;;;;5042606;28;20085;-69
2022/11/11 06:48:46;;;;;;;1.95;0.93;;;15.40;44.10;;;;;;5035387;28;20393;-68
2022/11/11 06:51:13;;;;;;;;;;;15.40;44.10;;;;;;5037779;28;20416;-67
2022/11/11 06:53:40;;;;;;;1.35;0.75;;;15.40;43.80;;;;;;5047855;28;19968;-68
2022/11/11 06:56:07;;;;;;;4.18;1.15;;;15.30;44.00;;;;;;5043239;28;20645;-67
2022/11/11 06:58:34;;;;;;;2.50;0.73;;;15.30;43.90;;;;;;5045398;28;20074;-67
2022/11/11 07:01:04;;;;;;;2.22;0.70;;;15.30;43.90;;;;;;5046861;28;20105;-67
2022/11/11 07:03:31;;;;;;;24.60;13.50;;;15.30;44.00;;;;;;5047039;28;20453;-67
2022/11/11 07:06:00;;;;;;;1.55;0.82;;;15.40;44.20;;;;;;5038727;28;20076;-67
2022/11/11 07:08:27;;;;;;;8.27;1.00;;;15.30;44.30;;;;;;5046619;28;20147;-67
2022/11/11 07:10:54;;;;;;;6.40;0.90;;;15.30;44.50;;;;;;5041769;28;20070;-69
2022/11/11 07:13:20;;;;;;;4.07;0.73;;;15.20;44.80;;;;;;5042103;28;20430;-65
2022/11/11 07:15:46;;;;;;;;;;;15.20;44.70;;;;;;5041292;28;20081;-67
2022/11/11 07:18:13;;;;;;;2.60;0.80;;;15.20;44.50;;;;;;5042651;28;20068;-68
2022/11/11 07:20:40;;;;;;;2.42;0.60;;;15.10;44.70;;;;;;5042472;28;20415;-66
2022/11/11 07:23:07;;;;;;;1.23;0.80;;;15.10;44.60;;;;;;5042904;28;20069;-67
2022/11/11 07:25:34;;;;;;;2.38;1.05;;;15.10;45.00;;;;;;5041943;28;20078;-66
2022/11/11 07:28:00;;;;;;;5.25;0.73;;;15.00;44.70;;;;;;5040814;28;20086;-68
2022/11/11 07:30:27;;;;;;;5.22;0.98;;;15.00;44.90;;;;;;5042155;28;20074;-66
2022/11/11 07:32:53;;;;;;;;;;;15.00;44.80;;;;;;5041854;28;20426;-68
2022/11/11 07:35:20;;;;;;;4.13;1.10;;;15.00;44.80;;;;;;5040386;28;19984;-66
2022/11/11 07:37:46;;;;;;;3.58;1.40;;;14.90;45.10;;;;;;5040694;28;20084;-67
2022/11/11 07:40:15;;;;;;;4.93;1.17;;;14.80;45.50;;;;;;5041363;28;20134;-66
2022/11/11 07:42:42;;;;;;;3.35;1.30;;;14.80;45.60;;;;;;5041744;28;20135;-66
2022/11/11 07:45:10;;;;;;;2.95;1.58;;;14.60;46.00;;;;;;5042154;28;20076;-66
2022/11/11 07:47:37;;;;;;;7.25;1.88;;;14.70;45.80;;;;;;5049059;28;20093;-67
2022/11/11 07:50:06;;;;;;;4.95;1.60;;;14.70;46.10;;;;;;5039592;28;20139;-66
2022/11/11 07:52:33;;;;;;;5.75;1.67;;;14.60;46.40;;;;;;5039876;28;20534;-68
2022/11/11 07:54:59;;;;;;;;;;;14.60;46.70;;;;;;5037210;28;20267;-66
2022/11/11 07:57:25;;;;;;;7.38;1.77;;;14.60;46.80;;;;;;5043998;28;20003;-68
2022/11/11 07:59:51;;;;;;;;;;;14.50;47.30;;;;;;5038328;28;20569;-68
2022/11/11 08:02:17;;;;;;;14.88;2.25;;;14.50;47.40;;;;;;5038281;28;20083;-66
2022/11/11 08:04:44;;;;;;;;;;;14.40;47.20;;;;;;5042703;28;20078;-68
2022/11/11 08:07:11;;;;;;;6.63;1.90;;;14.30;47.40;;;;;;5043485;28;19962;-69
2022/11/11 08:09:37;;;;;;;;;;;14.30;47.50;;;;;;5042121;28;20113;-66
2022/11/11 08:14:48;;;;;;;5.85;1.92;;;14.30;47.90;;;;;;5040431;28;20088;-68
2022/11/11 08:17:14;;;;;;;;;;;14.40;48.10;;;;;;5041713;28;20581;-67
2022/11/11 08:19:40;;;;;;;5.20;1.70;;;14.30;48.50;;;;;;5043575;28;19965;-66
2022/11/11 08:22:06;;;;;;;;;;;14.20;48.40;;;;;;5057257;28;20081;-68
2022/11/11 08:24:32;;;;;;;5.43;1.70;;;14.10;48.60;;;;;;5040326;28;19976;-66
2022/11/11 08:26:58;;;;;;;;;;;14.00;48.80;;;;;;5045716;28;20069;-66
2022/11/11 08:29:25;;;;;;;5.38;1.98;;;13.90;49.10;;;;;;5040443;28;20080;-68
2022/11/11 08:31:52;;;;;;;7.55;1.80;;;13.90;49.30;;;;;;5042809;28;20454;-67
2022/11/11 08:34:19;;;;;;;3.10;1.30;;;13.90;49.70;;;;;;5043734;28;20124;-67
2022/11/11 08:36:45;;;;;;;;;;;14.00;50.00;;;;;;5039146;28;20077;-66
2022/11/11 08:39:12;;;;;;;4.38;1.15;;;13.90;50.20;;;;;;5040354;28;20307;-67
2022/11/11 08:41:39;;;;;;;3.03;1.15;;;13.90;50.60;;;;;;5036725;28;20135;-66
2022/11/11 08:44:05;;;;;;;;;;;13.90;50.90;;;;;;5047562;28;20152;-66
2022/11/11 08:46:31;;;;;;;5.40;1.20;;;13.90;50.80;;;;;;5043065;28;20052;-68
2022/11/11 08:48:57;;;;;;;;;;;13.90;51.40;;;;;;5041416;28;20551;-66
2022/11/11 08:51:24;;;;;;;12.18;5.65;;;13.80;51.80;;;;;;5037369;28;19958;-67
2022/11/11 08:53:50;;;;;;;;;;;13.80;51.80;;;;;;5036336;28;20157;-67
2022/11/11 08:56:16;;;;;;;4.50;0.95;;;13.80;51.70;;;;;;5043783;28;20040;-66
2022/11/11 08:58:42;;;;;;;6.40;1.30;;;13.80;52.10;;;;;;5038933;28;20091;-67
2022/11/11 09:01:12;;;;;;;;;;;13.80;52.30;;;;;;5040893;28;20109;-68
2022/11/11 09:03:42;;;;;;;4.65;0.90;;;13.80;52.50;;;;;;5040290;28;19965;-68
2022/11/11 09:06:09;;;;;;;1.30;0.60;;;13.80;52.70;;;;;;5042844;28;20074;-67
2022/11/11 09:08:35;;;;;;;6.43;0.70;;;13.80;52.80;;;;;;5043723;28;20085;-66
2022/11/11 09:11:02;;;;;;;;;;;13.80;52.60;;;;;;5037982;28;20249;-67
2022/11/11 09:13:28;;;;;;;1.25;0.50;;;13.90;52.60;;;;;;5045235;28;20059;-67
2022/11/11 09:15:54;;;;;;;;;;;13.90;52.90;;;;;;5039043;28;20455;-69
2022/11/11 09:18:21;;;;;;;5.63;0.80;;;13.90;52.70;;;;;;5038907;28;19988;-68
2022/11/11 09:20:47;;;;;;;;;;;14.00;52.50;;;;;;5039548;28;20220;-68
2022/11/11 09:23:13;;;;;;;2.67;0.60;;;14.00;52.40;;;;;;5035309;28;20436;-69
2022/11/11 09:25:39;;;;;;;;;;;14.00;52.70;;;;;;5046143;28;20450;-68
2022/11/11 09:28:06;;;;;;;2.63;0.90;;;13.90;53.00;;;;;;5042956;28;19965;-69
2022/11/11 09:30:33;;;;;;;3.53;1.05;;;13.90;52.90;;;;;;5044577;28;20080;-65
2022/11/11 09:33:03;;;;;;;;;;;13.90;53.00;;;;;;5039307;28;20070;-65
2022/11/11 09:35:29;;;;;;;3.30;0.98;;;13.90;53.10;;;;;;5040548;28;19962;-65
2022/11/11 09:37:55;;;;;;;;;;;13.90;53.20;;;;;;5041367;28;20622;-62
2022/11/11 09:40:24;;;;;;;8.52;0.95;;;13.90;53.00;;;;;;5038848;28;20062;-64
2022/11/11 09:43:19;;;;;;;3.90;0.90;;;13.90;52.90;;;;;;5041396;28;20098;-64
2022/11/11 09:46:08;;;;;;;5.47;0.77;;;13.90;52.70;;;;;;5042205;28;20073;-66
2022/11/11 09:48:41;;;;;;;3.50;0.95;;;13.90;52.50;;;;;;5032650;28;20101;-64
2022/11/11 09:51:20;;;;;;;6.15;1.00;;;13.90;51.70;;;;;;5039491;28;20065;-63
2022/11/11 09:53:54;;;;;;;4.18;1.40;;;13.90;51.40;;;;;;5041392;28;20065;-61
2022/11/11 09:56:24;;;;;;;3.40;1.10;;;13.90;51.20;;;;;;5040437;28;20219;-62
2022/11/11 09:59:00;;;;;;;5.38;1.00;;;13.80;50.90;;;;;;5055504;28;20082;-64
2022/11/11 10:01:45;;;;;;;1.23;0.70;;;13.80;50.70;;;;;;5039344;28;20093;-65
2022/11/11 10:04:24;;;;;;;2.40;0.80;;;13.80;50.50;;;;;;5042840;28;20096;-63
2022/11/11 10:06:56;;;;;;;3.72;0.70;;;13.70;50.10;;;;;;5038145;28;20117;-65
2022/11/11 10:09:45;;;;;;;3.63;0.60;;;13.70;50.00;;;;;;5037183;28;20499;-65
2022/11/11 10:12:13;;;;;;;4.35;0.80;;;13.70;50.20;;;;;;5042962;28;20439;-64
2022/11/11 10:14:48;;;;;;;2.25;1.13;;;13.60;50.20;;;;;;5036595;28;20184;-65
2022/11/11 10:17:33;;;;;;;2.90;1.10;;;13.60;50.20;;;;;;5040103;28;20156;-64
2022/11/11 10:20:08;;;;;;;1.35;0.80;;;13.60;50.50;;;;;;5047082;28;20080;-64
2022/11/11 10:22:38;;;;;;;4.32;1.10;;;13.60;50.60;;;;;;5039657;28;20454;-65
2022/11/11 10:25:15;;;;;;;3.05;0.85;;;13.50;50.90;;;;;;5043482;28;20545;-62
2022/11/11 10:27:46;;;;;;;3.33;0.70;;;13.40;51.10;;;;;;5041319;28;20080;-65
2022/11/11 10:30:22;;;;;;;2.72;0.90;;;13.40;51.20;;;;;;5049421;28;20097;-62
2022/11/11 10:33:19;;;;;;;0.93;0.68;;;13.30;51.50;;;;;;5042625;28;20069;-65
2022/11/11 10:35:49;;;;;;;2.60;0.80;;;13.30;51.40;;;;;;4974557;28;20091;-65
2022/11/11 10:38:39;;;;;;;2.30;0.90;;;13.30;51.70;;;;;;4974823;28;20153;-64
2022/11/11 10:41:22;;;;;;;3.42;0.82;;;13.20;51.70;;;;;;4975282;28;20125;-63
2022/11/11 10:43:49;;;;;;;1.42;1.02;;;13.20;52.00;;;;;;4975546;28;20556;-62
2022/11/11 10:46:21;;;;;;;;;;;13.20;51.70;;;;;;4975675;28;20512;-64
2022/11/11 10:49:04;;;;;;;5.72;0.93;;;13.10;51.60;;;;;;4975070;28;19975;-64
2022/11/11 10:51:36;;;;;;;3.38;0.90;;;13.00;51.60;;;;;;4974605;28;20117;-65
2022/11/11 10:54:17;;;;;;;3.65;0.82;;;13.00;51.80;;;;;;4975122;28;20672;-63
2022/11/11 10:56:54;;;;;;;4.30;0.73;;;12.90;51.60;;;;;;4974948;28;20134;-63
2022/11/11 10:59:30;;;;;;;5.15;0.90;;;12.90;51.80;;;;;;4973775;28;20083;-63
2022/11/11 11:02:23;;;;;;;1.17;0.70;;;12.90;51.30;;;;;;4974304;28;20121;-64
2022/11/11 11:05:00;;;;;;;0.70;0.60;;;12.90;51.70;;;;;;4974438;28;20115;-64
2022/11/11 11:07:43;;;;;;;3.90;0.57;;;12.90;51.60;;;;;;4974922;28;20082;-63
2022/11/11 11:10:17;;;;;;;6.25;0.68;;;12.90;52.00;;;;;;4974036;28;20079;-62
2022/11/11 11:13:01;;;;;;;4.80;0.80;;;12.90;52.20;;;;;;5015035;28;20077;-62
2022/11/11 11:15:30;;;;;;;1.67;0.75;;;12.90;52.20;;;;;;5043912;28;20078;-64
2022/11/11 11:18:09;;;;;;;2.63;0.80;;;12.80;51.80;;;;;;5048508;28;20070;-63
2022/11/11 11:20:36;;;;;;;4.53;1.63;;;12.70;52.40;;;;;;5044771;28;20084;-64
2022/11/11 11:23:03;;;;;;;1.92;1.30;;;12.70;52.70;;;;;;5050917;28;20097;-62
2022/11/11 11:25:34;;;;;;;7.40;2.83;;;12.80;52.80;;;;;;5046500;28;20434;-63
2022/11/11 11:28:13;;;;;;;8.65;3.75;;;12.80;52.70;;;;;;5047031;28;20562;-63
2022/11/11 11:30:56;;;;;;;4.85;3.15;;;12.80;52.70;;;;;;5043383;28;20161;-63
2022/11/11 11:33:23;;;;;;;6.95;3.20;;;12.70;52.80;;;;;;5046484;28;20541;-63
2022/11/11 11:35:49;;;;;;;2.03;1.10;;;12.70;53.10;;;;;;5047007;28;20133;-64
2022/11/11 11:38:15;;;;;;;;;;;12.70;53.20;;;;;;5043918;28;20077;-62
2022/11/11 11:40:49;;;;;;;2.20;1.33;;;12.60;52.90;;;;;;5044847;28;19988;-64
2022/11/11 11:43:36;;;;;;;1.33;0.80;;;12.60;53.10;;;;;;5042023;28;20097;-64
2022/11/11 11:46:14;;;;;;;;;;;12.60;53.00;;;;;;5047047;28;20567;-63
2022/11/11 11:48:40;;;;;;;;;;;12.70;53.20;;;;;;5042994;28;19971;-64
2022/11/11 11:51:20;;;;;;;2.72;0.90;;;12.60;53.10;;;;;;5044282;28;19964;-63
2022/11/11 11:53:57;;;;;;;1.15;0.60;;;12.60;52.90;;;;;;5040637;28;20078;-63
2022/11/11 11:56:37;;;;;;;3.10;0.90;;;12.60;53.10;;;;;;5041602;28;20207;-63
2022/11/11 11:59:27;;;;;;;2.72;1.10;;;12.60;53.10;;;;;;5042380;28;20074;-63
2022/11/11 12:02:21;;;;;;;3.80;1.98;;;12.60;53.30;;;;;;5042481;28;20218;-62
2022/11/11 12:05:05;;;;;;;9.13;2.90;;;12.60;53.40;;;;;;5046857;28;20166;-64
2022/11/11 12:07:50;;;;;;;6.43;3.20;;;12.60;54.10;;;;;;5037092;28;20151;-64
2022/11/11 12:10:35;;;;;;;6.55;2.10;;;12.60;53.70;;;;;;5043575;28;20561;-64
2022/11/11 12:13:01;;;;;;;5.28;2.03;;;12.50;53.90;;;;;;5046178;28;20480;-63
2022/11/11 12:15:48;;;;;;;5.05;1.23;;;12.50;54.30;;;;;;5043347;28;20105;-62
2022/11/11 12:18:42;;;;;;;26.27;11.13;;;12.40;54.30;;;;;;5045776;28;20219;-64
2022/11/11 12:21:15;;;;;;;4.97;1.27;;;12.40;54.80;;;;;;5040839;28;20108;-64
2022/11/11 12:24:23;;;;;;;4.93;0.90;;;12.40;54.30;;;;;;5038874;28;20081;-62
2022/11/11 12:27:09;;;;;;;29.55;13.93;;;12.30;54.00;;;;;;5022964;28;20550;-62
2022/11/11 12:29:39;;;;;;;3.17;1.13;;;12.30;54.30;;;;;;5042686;28;20513;-62
2022/11/11 12:32:47;;;;;;;3.10;1.08;;;12.30;54.40;;;;;;5038915;28;20070;-62
2022/11/11 12:35:22;;;;;;;5.05;1.02;;;12.20;54.50;;;;;;5007189;28;20089;-62
2022/11/11 12:38:04;;;;;;;9.48;1.30;;;12.10;54.30;;;;;;5042526;28;20211;-64
2022/11/11 12:40:45;;;;;;;4.43;1.40;;;12.10;54.50;;;;;;5041601;28;20100;-63
2022/11/11 12:43:28;;;;;;;5.78;1.20;;;12.10;54.70;;;;;;5043571;28;20104;-63
2022/11/11 12:46:13;;;;;;;5.13;1.52;;;12.10;54.40;;;;;;5043045;28;20097;-63
2022/11/11 12:49:30;;;;;;;6.78;1.45;;;12.00;54.30;;;;;;5038529;28;20441;-64
2022/11/11 12:52:00;;;;;;;3.22;1.40;;;12.00;54.50;;;;;;5043548;28;20116;-63
2022/11/11 12:55:04;;;;;;;5.03;1.45;;;11.90;54.80;;;;;;5039949;28;20070;-63
2022/11/11 12:57:56;;;;;;;4.10;1.52;;;12.00;54.80;;;;;;5028520;28;20114;-63
2022/11/11 13:00:25;;;;;;;2.17;1.77;;;12.00;54.60;;;;;;5041323;28;20105;-63
2022/11/11 13:03:14;;;;;;;3.95;2.20;;;11.90;54.90;;;;;;5039901;28;20429;-64
2022/11/11 13:05:49;;;;;;;3.00;2.10;;;12.00;54.60;;;;;;5041282;28;20081;-65
2022/11/11 13:08:27;;;;;;;6.95;1.92;;;12.00;54.50;;;;;;5043720;28;20093;-65
2022/11/11 13:11:11;;;;;;;3.60;1.60;;;12.10;54.40;;;;;;5042593;28;20152;-65
2022/11/11 13:13:55;;;;;;;4.63;1.50;;;12.10;54.90;;;;;;5041778;28;20065;-65
2022/11/11 13:16:23;;;;;;;1.95;1.05;;;12.10;54.80;;;;;;5037013;28;20115;-65
2022/11/11 13:19:05;;;;;;;5.22;1.20;;;12.10;55.00;;;;;;5039874;28;20078;-65
2022/11/11 13:21:40;;;;;;;7.53;0.90;;;12.10;55.40;;;;;;5040182;28;20135;-65
2022/11/11 13:24:15;;;;;;;4.10;1.17;;;12.10;55.10;;;;;;5041650;28;20531;-65
2022/11/11 13:26:56;;;;;;;3.33;1.08;;;12.10;55.00;;;;;;5036969;28;20089;-64
2022/11/11 13:29:41;;;;;;;4.55;1.00;;;12.20;55.20;;;;;;5042112;28;20127;-65
2022/11/11 13:32:12;;;;;;;6.35;1.20;;;12.10;54.70;;;;;;5041386;28;20124;-64
2022/11/11 13:34:40;;;;;;;5.53;1.25;;;12.10;54.50;;;;;;5039066;28;20097;-65
2022/11/11 13:37:17;;;;;;;4.80;1.20;;;12.10;54.30;;;;;;5058073;28;20520;-65
2022/11/11 13:39:48;;;;;;;4.50;1.10;;;12.00;53.90;;;;;;5037027;28;20434;-65
2022/11/11 13:42:23;;;;;;;3.67;1.50;;;12.10;53.80;;;;;;5039578;28;20069;-65
2022/11/11 13:44:51;;;;;;;4.85;1.27;;;12.10;53.30;;;;;;5046428;28;20153;-65
2022/11/11 13:47:39;;;;;;;6.22;1.38;;;12.20;52.90;;;;;;5047708;28;20066;-65
2022/11/11 13:50:29;;;;;;;6.55;3.85;;;12.20;52.90;;;;;;5043198;28;20127;-65
2022/11/11 13:53:12;;;;;;;12.25;3.72;;;12.20;52.50;;;;;;5036560;28;20073;-65
2022/11/11 13:55:42;;;;;;;6.63;2.50;;;12.20;52.10;;;;;;5040242;28;20074;-65
2022/11/11 13:58:38;;;;;;;14.50;5.80;;;12.20;52.10;;;;;;5039155;28;20116;-64
2022/11/11 14:01:08;;;;;;;12.25;4.47;;;12.20;51.40;;;;;;5037520;28;20137;-63
2022/11/11 14:03:44;;;;;;;9.65;6.03;;;12.20;51.20;;;;;;5041946;28;20081;-65
2022/11/11 14:06:13;;;;;;;12.65;6.65;;;12.30;51.00;;;;;;5042271;28;20089;-65
2022/11/11 14:08:46;;;;;;;18.13;5.82;;;12.30;51.20;;;;;;5038550;28;20142;-64
2022/11/11 14:11:38;;;;;;;12.38;4.80;;;12.30;51.40;;;;;;5035885;28;20082;-64
2022/11/11 14:14:31;;;;;;;12.68;6.47;;;12.30;50.90;;;;;;5031687;28;20094;-63
2022/11/11 14:17:11;;;;;;;18.35;7.55;;;12.30;51.00;;;;;;5030412;28;20086;-64
2022/11/11 14:19:38;;;;;;;16.38;6.30;;;12.30;51.10;;;;;;5041219;28;20124;-64
2022/11/11 14:22:36;;;;;;;;;;;12.30;51.20;;;;;;5038104;28;20097;-64
2022/11/11 14:25:29;;;;;;;25.75;10.57;;;12.30;51.20;;;;;;4978146;28;20013;-65